Hovedside
METAR-TAF:

METAR-TAF

Lufthavner :

Kärdla, Estland

Kärdla lufthavn

breddegrad: 58-59N, lengdegrad: 022-49E, høyde over havet: 5 m

METAR: fraværende

Tid: 13:23 (10:23 UTC)

Varsel

Denne rapporten ble laget for 30 timer og 23 minutter siden, klokken 04:00 UTC
Varsel gyldig fra 24. klokken 05 UTC til 24. klokken 11 UTC
Vind 10 kt fra Sør
Sikt 10 km eller mer
ingen skyer under 1500 m og ingen bygeskyer
Midlertidig
fra 24. klokken 09 UTC til 24. klokken 11 UTC
Få skyer i en høyde av 2500 ft, Bygeskyer.
Overskyet i en høyde av 4000 ft

TAF: EEKA 240400Z 2405/2411 17010KT CAVOK TEMPO 2409/2411 FEW025CB OVC040

Værobservasjoner og værvarsel for over 4000 flyplasser (METAR- og TAF-rapporter).

Tilgjengelige stasjoner er representert av de røde og gule prikkene på kartet.

Hold musepekeren over prikken for å se navnet på stasjonen.

Klikk så for å se værobservasjoner og -varsler.

For å forandre kartet kan du klikke på den grønne knappen med svart kryss for å zoome inn, på den grønne knappen med strek for å zoome ut, eller på de grønne pilene for å se tilstøtende kart.


METAR-TAF: